sensor_id;sensor_type;location;lat;lon;timestamp;temperature;humidity
210;DHT22;90;48.810;9.120;2022-07-05T00:00:45;19.60;67.70
210;DHT22;90;48.810;9.120;2022-07-05T00:03:13;19.60;67.90
210;DHT22;90;48.810;9.120;2022-07-05T00:05:42;19.50;68.60
210;DHT22;90;48.810;9.120;2022-07-05T00:08:09;19.50;68.60
210;DHT22;90;48.810;9.120;2022-07-05T00:10:37;19.50;68.10
210;DHT22;90;48.810;9.120;2022-07-05T00:13:04;19.40;68.40
210;DHT22;90;48.810;9.120;2022-07-05T00:15:32;19.30;68.70
210;DHT22;90;48.810;9.120;2022-07-05T00:17:59;19.20;69.60
210;DHT22;90;48.810;9.120;2022-07-05T00:20:26;19.20;69.30
210;DHT22;90;48.810;9.120;2022-07-05T00:22:55;19.20;69.00
210;DHT22;90;48.810;9.120;2022-07-05T00:25:22;19.30;68.30
210;DHT22;90;48.810;9.120;2022-07-05T00:27:49;19.40;68.30
210;DHT22;90;48.810;9.120;2022-07-05T00:30:16;19.40;68.30
210;DHT22;90;48.810;9.120;2022-07-05T00:32:43;19.40;68.20
210;DHT22;90;48.810;9.120;2022-07-05T00:35:10;19.40;67.90
210;DHT22;90;48.810;9.120;2022-07-05T00:37:37;19.30;68.30
210;DHT22;90;48.810;9.120;2022-07-05T00:40:07;19.50;67.80
210;DHT22;90;48.810;9.120;2022-07-05T00:42:35;19.60;67.40
210;DHT22;90;48.810;9.120;2022-07-05T00:45:03;19.40;67.60
210;DHT22;90;48.810;9.120;2022-07-05T00:47:30;19.30;68.20
210;DHT22;90;48.810;9.120;2022-07-05T00:49:57;19.20;68.40
210;DHT22;90;48.810;9.120;2022-07-05T00:52:24;19.10;69.10
210;DHT22;90;48.810;9.120;2022-07-05T00:54:52;19.00;69.20
210;DHT22;90;48.810;9.120;2022-07-05T00:57:21;19.00;69.90
210;DHT22;90;48.810;9.120;2022-07-05T00:59:49;18.90;70.30
210;DHT22;90;48.810;9.120;2022-07-05T01:02:16;18.80;70.50
210;DHT22;90;48.810;9.120;2022-07-05T01:04:47;18.80;70.70
210;DHT22;90;48.810;9.120;2022-07-05T01:07:14;18.70;71.30
210;DHT22;90;48.810;9.120;2022-07-05T01:09:42;18.80;70.50
210;DHT22;90;48.810;9.120;2022-07-05T01:12:09;18.90;69.60
210;DHT22;90;48.810;9.120;2022-07-05T01:14:38;19.00;69.80
210;DHT22;90;48.810;9.120;2022-07-05T01:17:07;19.00;70.00
210;DHT22;90;48.810;9.120;2022-07-05T01:19:35;19.00;70.00
210;DHT22;90;48.810;9.120;2022-07-05T01:22:03;18.70;70.70
210;DHT22;90;48.810;9.120;2022-07-05T01:24:31;18.60;71.10
210;DHT22;90;48.810;9.120;2022-07-05T01:26:59;18.60;71.20
210;DHT22;90;48.810;9.120;2022-07-05T01:29:26;18.70;70.90
210;DHT22;90;48.810;9.120;2022-07-05T01:31:54;18.70;70.90
210;DHT22;90;48.810;9.120;2022-07-05T01:34:21;18.70;71.00
210;DHT22;90;48.810;9.120;2022-07-05T01:36:48;18.60;71.00
210;DHT22;90;48.810;9.120;2022-07-05T01:39:15;18.60;70.80
210;DHT22;90;48.810;9.120;2022-07-05T01:41:43;18.50;71.40
210;DHT22;90;48.810;9.120;2022-07-05T01:44:11;18.50;71.30
210;DHT22;90;48.810;9.120;2022-07-05T01:46:39;18.40;71.90
210;DHT22;90;48.810;9.120;2022-07-05T01:49:09;18.40;71.80
210;DHT22;90;48.810;9.120;2022-07-05T01:51:40;18.50;71.30
210;DHT22;90;48.810;9.120;2022-07-05T01:54:08;18.50;70.70
210;DHT22;90;48.810;9.120;2022-07-05T01:56:37;18.50;71.60
210;DHT22;90;48.810;9.120;2022-07-05T01:59:06;18.50;71.60
210;DHT22;90;48.810;9.120;2022-07-05T02:01:35;18.40;71.30
210;DHT22;90;48.810;9.120;2022-07-05T02:04:04;18.20;72.00
210;DHT22;90;48.810;9.120;2022-07-05T02:06:31;18.10;71.80
210;DHT22;90;48.810;9.120;2022-07-05T02:08:59;18.10;71.70
210;DHT22;90;48.810;9.120;2022-07-05T02:11:26;18.10;72.10
210;DHT22;90;48.810;9.120;2022-07-05T02:13:53;18.20;71.70
210;DHT22;90;48.810;9.120;2022-07-05T02:16:26;18.10;71.80
210;DHT22;90;48.810;9.120;2022-07-05T02:18:53;18.00;71.80
210;DHT22;90;48.810;9.120;2022-07-05T02:21:21;18.10;71.90
210;DHT22;90;48.810;9.120;2022-07-05T02:23:48;18.00;71.80
210;DHT22;90;48.810;9.120;2022-07-05T02:26:15;17.80;72.60
210;DHT22;90;48.810;9.120;2022-07-05T02:28:42;17.70;72.90
210;DHT22;90;48.810;9.120;2022-07-05T02:31:09;17.60;73.20
210;DHT22;90;48.810;9.120;2022-07-05T02:33:38;17.60;73.20
210;DHT22;90;48.810;9.120;2022-07-05T02:36:06;17.80;71.70
210;DHT22;90;48.810;9.120;2022-07-05T02:38:34;17.80;71.20
210;DHT22;90;48.810;9.120;2022-07-05T02:41:04;17.80;71.50
210;DHT22;90;48.810;9.120;2022-07-05T02:43:32;17.90;71.20
210;DHT22;90;48.810;9.120;2022-07-05T02:45:59;18.00;70.90
210;DHT22;90;48.810;9.120;2022-07-05T02:48:28;17.80;71.50
210;DHT22;90;48.810;9.120;2022-07-05T02:50:56;17.80;71.20
210;DHT22;90;48.810;9.120;2022-07-05T02:53:24;17.80;71.40
210;DHT22;90;48.810;9.120;2022-07-05T02:55:51;17.60;71.80
210;DHT22;90;48.810;9.120;2022-07-05T02:58:18;17.60;71.90
210;DHT22;90;48.810;9.120;2022-07-05T03:00:46;17.70;71.70
210;DHT22;90;48.810;9.120;2022-07-05T03:03:14;17.70;71.90
210;DHT22;90;48.810;9.120;2022-07-05T03:05:41;17.80;71.80
210;DHT22;90;48.810;9.120;2022-07-05T03:08:09;17.70;72.10
210;DHT22;90;48.810;9.120;2022-07-05T03:10:36;17.60;72.60
210;DHT22;90;48.810;9.120;2022-07-05T03:13:04;17.60;72.70
210;DHT22;90;48.810;9.120;2022-07-05T03:15:31;17.60;72.00
210;DHT22;90;48.810;9.120;2022-07-05T03:17:59;17.60;71.60
210;DHT22;90;48.810;9.120;2022-07-05T03:20:26;17.80;71.20
210;DHT22;90;48.810;9.120;2022-07-05T03:22:53;17.80;70.60
210;DHT22;90;48.810;9.120;2022-07-05T03:25:22;17.70;71.00
210;DHT22;90;48.810;9.120;2022-07-05T03:27:49;17.70;70.80
210;DHT22;90;48.810;9.120;2022-07-05T03:30:16;17.70;71.10
210;DHT22;90;48.810;9.120;2022-07-05T03:32:43;17.60;71.50
210;DHT22;90;48.810;9.120;2022-07-05T03:35:10;17.60;71.80
210;DHT22;90;48.810;9.120;2022-07-05T03:37:37;17.50;72.10
210;DHT22;90;48.810;9.120;2022-07-05T03:40:06;17.50;72.20
210;DHT22;90;48.810;9.120;2022-07-05T03:42:34;17.40;73.00
210;DHT22;90;48.810;9.120;2022-07-05T03:45:02;17.40;72.50
210;DHT22;90;48.810;9.120;2022-07-05T03:47:29;17.40;72.10
210;DHT22;90;48.810;9.120;2022-07-05T03:49:56;17.30;72.40
210;DHT22;90;48.810;9.120;2022-07-05T03:52:23;17.30;72.10
210;DHT22;90;48.810;9.120;2022-07-05T03:54:50;17.30;72.10
210;DHT22;90;48.810;9.120;2022-07-05T03:57:18;17.30;72.30
210;DHT22;90;48.810;9.120;2022-07-05T03:59:46;17.40;72.00
210;DHT22;90;48.810;9.120;2022-07-05T04:02:13;17.30;72.20
210;DHT22;90;48.810;9.120;2022-07-05T04:04:40;17.30;72.30
210;DHT22;90;48.810;9.120;2022-07-05T04:07:07;17.30;72.40
210;DHT22;90;48.810;9.120;2022-07-05T04:09:35;17.50;71.80
210;DHT22;90;48.810;9.120;2022-07-05T04:12:03;17.60;71.30
210;DHT22;90;48.810;9.120;2022-07-05T04:14:30;17.60;71.40
210;DHT22;90;48.810;9.120;2022-07-05T04:16:59;17.60;71.40
210;DHT22;90;48.810;9.120;2022-07-05T04:19:27;17.60;70.90
210;DHT22;90;48.810;9.120;2022-07-05T04:21:54;17.80;71.10
210;DHT22;90;48.810;9.120;2022-07-05T04:24:21;17.80;72.10
210;DHT22;90;48.810;9.120;2022-07-05T04:26:48;17.80;72.40
210;DHT22;90;48.810;9.120;2022-07-05T04:29:15;17.80;72.60
210;DHT22;90;48.810;9.120;2022-07-05T04:31:42;17.60;73.50
210;DHT22;90;48.810;9.120;2022-07-05T04:34:10;17.70;73.10
210;DHT22;90;48.810;9.120;2022-07-05T04:36:38;17.60;72.90
210;DHT22;90;48.810;9.120;2022-07-05T04:39:06;17.70;73.10
210;DHT22;90;48.810;9.120;2022-07-05T04:41:34;17.70;73.40
210;DHT22;90;48.810;9.120;2022-07-05T04:44:01;17.80;73.20
210;DHT22;90;48.810;9.120;2022-07-05T04:46:28;17.80;73.50
210;DHT22;90;48.810;9.120;2022-07-05T04:48:55;17.80;72.20
210;DHT22;90;48.810;9.120;2022-07-05T04:51:24;17.90;72.40
210;DHT22;90;48.810;9.120;2022-07-05T04:53:52;18.00;71.90
210;DHT22;90;48.810;9.120;2022-07-05T04:56:19;18.10;71.00
210;DHT22;90;48.810;9.120;2022-07-05T04:58:46;18.30;70.90
210;DHT22;90;48.810;9.120;2022-07-05T05:01:13;18.40;71.90
210;DHT22;90;48.810;9.120;2022-07-05T05:03:42;18.50;72.00
210;DHT22;90;48.810;9.120;2022-07-05T05:06:10;18.40;71.90
210;DHT22;90;48.810;9.120;2022-07-05T05:08:40;18.40;71.90
210;DHT22;90;48.810;9.120;2022-07-05T05:11:08;18.60;71.00
210;DHT22;90;48.810;9.120;2022-07-05T05:13:35;18.80;69.50
210;DHT22;90;48.810;9.120;2022-07-05T05:16:03;19.00;68.50
210;DHT22;90;48.810;9.120;2022-07-05T05:18:30;19.10;67.30
210;DHT22;90;48.810;9.120;2022-07-05T05:20:59;19.20;67.00
210;DHT22;90;48.810;9.120;2022-07-05T05:23:26;19.30;65.60
210;DHT22;90;48.810;9.120;2022-07-05T05:25:56;19.50;65.70
210;DHT22;90;48.810;9.120;2022-07-05T05:28:23;19.60;64.80
210;DHT22;90;48.810;9.120;2022-07-05T05:30:50;19.70;64.50
210;DHT22;90;48.810;9.120;2022-07-05T05:33:17;19.80;64.30
210;DHT22;90;48.810;9.120;2022-07-05T05:35:44;19.80;64.00
210;DHT22;90;48.810;9.120;2022-07-05T05:38:11;20.00;63.80
210;DHT22;90;48.810;9.120;2022-07-05T05:40:39;20.00;63.50
210;DHT22;90;48.810;9.120;2022-07-05T05:43:08;20.10;62.80
210;DHT22;90;48.810;9.120;2022-07-05T05:45:35;20.10;62.00
210;DHT22;90;48.810;9.120;2022-07-05T05:48:03;20.20;61.10
210;DHT22;90;48.810;9.120;2022-07-05T05:50:32;20.20;61.90
210;DHT22;90;48.810;9.120;2022-07-05T05:52:59;20.30;61.70
210;DHT22;90;48.810;9.120;2022-07-05T05:55:28;20.40;60.60
210;DHT22;90;48.810;9.120;2022-07-05T05:57:56;20.40;59.50
210;DHT22;90;48.810;9.120;2022-07-05T06:00:25;20.40;58.60
210;DHT22;90;48.810;9.120;2022-07-05T06:02:52;20.60;60.80
210;DHT22;90;48.810;9.120;2022-07-05T06:05:20;20.80;59.70
210;DHT22;90;48.810;9.120;2022-07-05T06:07:49;20.90;56.90
210;DHT22;90;48.810;9.120;2022-07-05T06:10:18;21.00;57.20
210;DHT22;90;48.810;9.120;2022-07-05T06:12:46;21.00;58.00
210;DHT22;90;48.810;9.120;2022-07-05T06:15:13;21.10;57.20
210;DHT22;90;48.810;9.120;2022-07-05T06:17:42;21.10;56.80
210;DHT22;90;48.810;9.120;2022-07-05T06:20:11;21.10;56.60
210;DHT22;90;48.810;9.120;2022-07-05T06:22:39;21.10;56.80
210;DHT22;90;48.810;9.120;2022-07-05T06:25:08;21.10;56.90
210;DHT22;90;48.810;9.120;2022-07-05T06:27:39;21.20;57.30
210;DHT22;90;48.810;9.120;2022-07-05T06:30:08;21.30;57.40
210;DHT22;90;48.810;9.120;2022-07-05T06:32:36;21.40;58.00
210;DHT22;90;48.810;9.120;2022-07-05T06:35:06;21.50;57.80
210;DHT22;90;48.810;9.120;2022-07-05T06:37:44;21.70;56.90
210;DHT22;90;48.810;9.120;2022-07-05T06:40:13;21.70;56.50
210;DHT22;90;48.810;9.120;2022-07-05T06:42:40;21.70;55.40
210;DHT22;90;48.810;9.120;2022-07-05T06:45:08;21.70;55.60
210;DHT22;90;48.810;9.120;2022-07-05T06:47:36;21.70;56.30
210;DHT22;90;48.810;9.120;2022-07-05T06:50:05;21.80;56.90
210;DHT22;90;48.810;9.120;2022-07-05T06:52:33;22.00;54.10
210;DHT22;90;48.810;9.120;2022-07-05T06:55:00;22.10;53.60
210;DHT22;90;48.810;9.120;2022-07-05T06:57:28;22.10;53.20
210;DHT22;90;48.810;9.120;2022-07-05T06:59:55;22.00;52.40
210;DHT22;90;48.810;9.120;2022-07-05T07:02:22;22.00;52.40
210;DHT22;90;48.810;9.120;2022-07-05T07:04:49;21.90;53.10
210;DHT22;90;48.810;9.120;2022-07-05T07:07:18;22.00;54.00
210;DHT22;90;48.810;9.120;2022-07-05T07:10:03;22.10;53.00
210;DHT22;90;48.810;9.120;2022-07-05T07:12:31;22.10;53.30
210;DHT22;90;48.810;9.120;2022-07-05T07:14:58;22.20;53.60
210;DHT22;90;48.810;9.120;2022-07-05T07:17:25;22.40;53.40
210;DHT22;90;48.810;9.120;2022-07-05T07:19:52;22.40;53.10
210;DHT22;90;48.810;9.120;2022-07-05T07:22:21;22.40;53.00
210;DHT22;90;48.810;9.120;2022-07-05T07:24:48;22.30;52.10
210;DHT22;90;48.810;9.120;2022-07-05T07:27:15;22.50;53.60
210;DHT22;90;48.810;9.120;2022-07-05T07:29:42;22.70;52.80
210;DHT22;90;48.810;9.120;2022-07-05T07:32:09;22.80;51.20
210;DHT22;90;48.810;9.120;2022-07-05T07:34:36;22.80;51.90
210;DHT22;90;48.810;9.120;2022-07-05T07:37:04;22.80;51.90
210;DHT22;90;48.810;9.120;2022-07-05T07:39:33;22.70;51.80
210;DHT22;90;48.810;9.120;2022-07-05T07:42:00;22.60;52.10
210;DHT22;90;48.810;9.120;2022-07-05T07:44:27;22.50;53.30
210;DHT22;90;48.810;9.120;2022-07-05T07:46:54;22.50;53.50
210;DHT22;90;48.810;9.120;2022-07-05T07:49:21;22.50;53.00
210;DHT22;90;48.810;9.120;2022-07-05T07:51:49;22.50;52.90
210;DHT22;90;48.810;9.120;2022-07-05T07:54:17;22.50;52.50
210;DHT22;90;48.810;9.120;2022-07-05T07:56:46;22.50;52.70
210;DHT22;90;48.810;9.120;2022-07-05T07:59:13;22.50;53.10
210;DHT22;90;48.810;9.120;2022-07-05T08:01:40;22.60;53.60
210;DHT22;90;48.810;9.120;2022-07-05T08:04:07;22.60;53.20
210;DHT22;90;48.810;9.120;2022-07-05T08:06:35;22.60;53.90
210;DHT22;90;48.810;9.120;2022-07-05T08:09:02;22.60;53.20
210;DHT22;90;48.810;9.120;2022-07-05T08:11:29;22.60;53.60
210;DHT22;90;48.810;9.120;2022-07-05T08:13:58;22.70;53.50
210;DHT22;90;48.810;9.120;2022-07-05T08:16:25;22.70;52.90
210;DHT22;90;48.810;9.120;2022-07-05T08:18:52;22.80;52.30
210;DHT22;90;48.810;9.120;2022-07-05T08:21:36;22.80;52.70
210;DHT22;90;48.810;9.120;2022-07-05T08:24:05;22.80;52.50
210;DHT22;90;48.810;9.120;2022-07-05T08:26:34;22.80;52.40
210;DHT22;90;48.810;9.120;2022-07-05T08:29:04;22.90;53.20
210;DHT22;90;48.810;9.120;2022-07-05T08:31:34;22.90;51.90
210;DHT22;90;48.810;9.120;2022-07-05T08:34:04;22.90;52.60
210;DHT22;90;48.810;9.120;2022-07-05T08:36:32;23.00;53.50
210;DHT22;90;48.810;9.120;2022-07-05T08:38:59;23.10;53.20
210;DHT22;90;48.810;9.120;2022-07-05T08:41:26;23.20;53.50
210;DHT22;90;48.810;9.120;2022-07-05T08:43:57;23.40;52.90
210;DHT22;90;48.810;9.120;2022-07-05T08:46:26;23.40;51.90
210;DHT22;90;48.810;9.120;2022-07-05T08:48:59;23.50;51.50
210;DHT22;90;48.810;9.120;2022-07-05T08:51:28;23.60;52.30
210;DHT22;90;48.810;9.120;2022-07-05T08:53:55;23.60;52.60
210;DHT22;90;48.810;9.120;2022-07-05T08:56:22;23.70;52.20
210;DHT22;90;48.810;9.120;2022-07-05T08:58:49;23.80;51.20
210;DHT22;90;48.810;9.120;2022-07-05T09:01:17;23.80;50.70
210;DHT22;90;48.810;9.120;2022-07-05T09:03:48;23.80;51.10
210;DHT22;90;48.810;9.120;2022-07-05T09:06:17;23.80;50.60
210;DHT22;90;48.810;9.120;2022-07-05T09:08:45;23.90;52.10
210;DHT22;90;48.810;9.120;2022-07-05T09:11:16;23.90;49.60
210;DHT22;90;48.810;9.120;2022-07-05T09:13:47;23.90;51.80
210;DHT22;90;48.810;9.120;2022-07-05T09:16:15;24.00;51.30
210;DHT22;90;48.810;9.120;2022-07-05T09:18:45;24.00;49.30
210;DHT22;90;48.810;9.120;2022-07-05T09:21:14;24.00;50.80
210;DHT22;90;48.810;9.120;2022-07-05T09:23:42;24.10;50.90
210;DHT22;90;48.810;9.120;2022-07-05T09:26:10;24.10;49.70
210;DHT22;90;48.810;9.120;2022-07-05T09:28:37;24.10;48.70
210;DHT22;90;48.810;9.120;2022-07-05T09:31:27;24.20;47.50
210;DHT22;90;48.810;9.120;2022-07-05T09:34:03;24.20;49.00
210;DHT22;90;48.810;9.120;2022-07-05T09:36:48;24.30;47.30
210;DHT22;90;48.810;9.120;2022-07-05T09:39:15;24.30;46.90
210;DHT22;90;48.810;9.120;2022-07-05T09:41:43;24.40;48.20
210;DHT22;90;48.810;9.120;2022-07-05T09:44:12;24.40;46.90
210;DHT22;90;48.810;9.120;2022-07-05T09:47:07;24.40;48.10
210;DHT22;90;48.810;9.120;2022-07-05T09:49:37;24.40;45.80
210;DHT22;90;48.810;9.120;2022-07-05T09:52:05;24.50;46.10
210;DHT22;90;48.810;9.120;2022-07-05T09:54:35;24.50;47.20
210;DHT22;90;48.810;9.120;2022-07-05T09:57:03;24.60;45.50
210;DHT22;90;48.810;9.120;2022-07-05T09:59:32;24.60;45.20
210;DHT22;90;48.810;9.120;2022-07-05T10:02:03;24.60;46.00
210;DHT22;90;48.810;9.120;2022-07-05T10:04:34;24.60;46.60
210;DHT22;90;48.810;9.120;2022-07-05T10:07:02;24.50;45.80
210;DHT22;90;48.810;9.120;2022-07-05T10:09:30;24.60;44.60
210;DHT22;90;48.810;9.120;2022-07-05T10:11:57;24.60;43.20
210;DHT22;90;48.810;9.120;2022-07-05T10:14:24;24.70;44.70
210;DHT22;90;48.810;9.120;2022-07-05T10:16:57;24.80;45.10
210;DHT22;90;48.810;9.120;2022-07-05T10:19:29;24.80;45.80
210;DHT22;90;48.810;9.120;2022-07-05T10:21:59;24.80;44.50
210;DHT22;90;48.810;9.120;2022-07-05T10:24:32;24.70;41.90
210;DHT22;90;48.810;9.120;2022-07-05T10:27:00;24.80;43.60
210;DHT22;90;48.810;9.120;2022-07-05T10:29:29;24.80;43.60
210;DHT22;90;48.810;9.120;2022-07-05T10:31:57;24.90;44.10
210;DHT22;90;48.810;9.120;2022-07-05T10:34:25;25.00;44.50
210;DHT22;90;48.810;9.120;2022-07-05T10:36:52;24.90;45.60
210;DHT22;90;48.810;9.120;2022-07-05T10:39:19;24.90;44.10
210;DHT22;90;48.810;9.120;2022-07-05T10:41:51;25.00;42.90
210;DHT22;90;48.810;9.120;2022-07-05T10:44:26;25.10;42.80
210;DHT22;90;48.810;9.120;2022-07-05T10:47:07;25.10;44.90
210;DHT22;90;48.810;9.120;2022-07-05T10:49:35;25.20;44.20
210;DHT22;90;48.810;9.120;2022-07-05T10:52:03;25.20;43.10
210;DHT22;90;48.810;9.120;2022-07-05T10:54:31;25.20;42.90
210;DHT22;90;48.810;9.120;2022-07-05T10:57:21;25.20;42.90
210;DHT22;90;48.810;9.120;2022-07-05T11:00:06;25.30;42.50
210;DHT22;90;48.810;9.120;2022-07-05T11:02:33;25.30;43.20
210;DHT22;90;48.810;9.120;2022-07-05T11:05:01;25.50;42.10
210;DHT22;90;48.810;9.120;2022-07-05T11:07:56;25.40;41.80
210;DHT22;90;48.810;9.120;2022-07-05T11:10:24;25.40;41.90
210;DHT22;90;48.810;9.120;2022-07-05T11:12:52;25.40;42.00
210;DHT22;90;48.810;9.120;2022-07-05T11:15:19;25.40;42.00
210;DHT22;90;48.810;9.120;2022-07-05T11:17:49;25.40;42.00
210;DHT22;90;48.810;9.120;2022-07-05T11:20:18;25.50;41.50
210;DHT22;90;48.810;9.120;2022-07-05T11:23:06;25.50;42.20
210;DHT22;90;48.810;9.120;2022-07-05T11:25:35;25.60;42.70
210;DHT22;90;48.810;9.120;2022-07-05T11:28:12;25.70;40.70
210;DHT22;90;48.810;9.120;2022-07-05T11:30:48;25.70;40.30
210;DHT22;90;48.810;9.120;2022-07-05T11:33:35;25.70;41.20
210;DHT22;90;48.810;9.120;2022-07-05T11:36:04;25.70;42.40
210;DHT22;90;48.810;9.120;2022-07-05T11:38:32;25.70;41.60
210;DHT22;90;48.810;9.120;2022-07-05T11:41:13;25.70;41.90
210;DHT22;90;48.810;9.120;2022-07-05T11:43:41;25.70;41.10
210;DHT22;90;48.810;9.120;2022-07-05T11:46:09;25.70;41.40
210;DHT22;90;48.810;9.120;2022-07-05T11:48:36;25.80;44.00
210;DHT22;90;48.810;9.120;2022-07-05T11:51:15;26.00;40.30
210;DHT22;90;48.810;9.120;2022-07-05T11:53:42;25.90;40.90
210;DHT22;90;48.810;9.120;2022-07-05T11:56:10;25.90;42.00
210;DHT22;90;48.810;9.120;2022-07-05T11:58:37;26.00;41.40
210;DHT22;90;48.810;9.120;2022-07-05T12:01:06;26.00;41.90
210;DHT22;90;48.810;9.120;2022-07-05T12:03:33;26.00;42.20
210;DHT22;90;48.810;9.120;2022-07-05T12:06:10;26.10;42.20
210;DHT22;90;48.810;9.120;2022-07-05T12:08:38;26.20;41.30
210;DHT22;90;48.810;9.120;2022-07-05T12:11:09;26.20;41.10
210;DHT22;90;48.810;9.120;2022-07-05T12:13:54;26.10;41.60
210;DHT22;90;48.810;9.120;2022-07-05T12:16:23;26.10;41.50
210;DHT22;90;48.810;9.120;2022-07-05T12:18:52;26.20;40.80
210;DHT22;90;48.810;9.120;2022-07-05T12:21:20;26.30;42.00
210;DHT22;90;48.810;9.120;2022-07-05T12:23:50;26.50;40.70
210;DHT22;90;48.810;9.120;2022-07-05T12:26:18;26.50;39.90
210;DHT22;90;48.810;9.120;2022-07-05T12:28:46;26.50;42.00
210;DHT22;90;48.810;9.120;2022-07-05T12:31:17;26.50;42.90
210;DHT22;90;48.810;9.120;2022-07-05T12:33:46;26.60;40.80
210;DHT22;90;48.810;9.120;2022-07-05T12:36:14;26.70;40.90
210;DHT22;90;48.810;9.120;2022-07-05T12:38:42;26.80;40.30
210;DHT22;90;48.810;9.120;2022-07-05T12:41:09;26.90;40.00
210;DHT22;90;48.810;9.120;2022-07-05T12:43:50;26.80;41.60
210;DHT22;90;48.810;9.120;2022-07-05T12:46:18;26.90;40.30
210;DHT22;90;48.810;9.120;2022-07-05T12:48:51;26.80;40.10
210;DHT22;90;48.810;9.120;2022-07-05T12:51:32;26.70;41.20
210;DHT22;90;48.810;9.120;2022-07-05T12:54:00;26.60;40.70
210;DHT22;90;48.810;9.120;2022-07-05T12:56:49;26.80;40.50
210;DHT22;90;48.810;9.120;2022-07-05T12:59:33;26.90;39.80
210;DHT22;90;48.810;9.120;2022-07-05T13:02:01;26.90;38.70
210;DHT22;90;48.810;9.120;2022-07-05T13:04:30;26.90;39.50
210;DHT22;90;48.810;9.120;2022-07-05T13:06:59;27.00;39.40
210;DHT22;90;48.810;9.120;2022-07-05T13:09:31;27.00;38.70
210;DHT22;90;48.810;9.120;2022-07-05T13:12:07;26.70;40.60
210;DHT22;90;48.810;9.120;2022-07-05T13:14:36;26.60;40.40
210;DHT22;90;48.810;9.120;2022-07-05T13:17:03;26.40;40.20
210;DHT22;90;48.810;9.120;2022-07-05T13:19:32;26.20;40.50
210;DHT22;90;48.810;9.120;2022-07-05T13:22:01;26.30;41.50
210;DHT22;90;48.810;9.120;2022-07-05T13:24:31;26.50;41.90
210;DHT22;90;48.810;9.120;2022-07-05T13:26:59;26.70;39.60
210;DHT22;90;48.810;9.120;2022-07-05T13:29:27;26.90;40.20
210;DHT22;90;48.810;9.120;2022-07-05T13:31:54;27.00;39.80
210;DHT22;90;48.810;9.120;2022-07-05T13:34:22;27.10;40.50
210;DHT22;90;48.810;9.120;2022-07-05T13:36:53;27.20;39.40
210;DHT22;90;48.810;9.120;2022-07-05T13:39:21;27.30;38.10
210;DHT22;90;48.810;9.120;2022-07-05T13:41:49;27.40;38.70
210;DHT22;90;48.810;9.120;2022-07-05T13:44:16;27.50;39.10
210;DHT22;90;48.810;9.120;2022-07-05T13:46:44;27.50;37.50
210;DHT22;90;48.810;9.120;2022-07-05T13:49:12;27.50;37.90
210;DHT22;90;48.810;9.120;2022-07-05T13:51:39;27.50;38.30
210;DHT22;90;48.810;9.120;2022-07-05T13:54:08;27.20;38.70
210;DHT22;90;48.810;9.120;2022-07-05T13:56:35;27.20;39.60
210;DHT22;90;48.810;9.120;2022-07-05T13:59:03;27.20;39.00
210;DHT22;90;48.810;9.120;2022-07-05T14:01:30;27.40;38.20
210;DHT22;90;48.810;9.120;2022-07-05T14:03:59;27.60;38.10
210;DHT22;90;48.810;9.120;2022-07-05T14:06:29;27.70;38.20
210;DHT22;90;48.810;9.120;2022-07-05T14:08:57;27.80;38.00
210;DHT22;90;48.810;9.120;2022-07-05T14:11:26;27.80;37.60
210;DHT22;90;48.810;9.120;2022-07-05T14:13:53;27.60;38.00
210;DHT22;90;48.810;9.120;2022-07-05T14:16:21;27.30;37.20
210;DHT22;90;48.810;9.120;2022-07-05T14:18:48;27.40;37.30
210;DHT22;90;48.810;9.120;2022-07-05T14:21:16;27.50;36.90
210;DHT22;90;48.810;9.120;2022-07-05T14:23:44;27.40;36.60
210;DHT22;90;48.810;9.120;2022-07-05T14:26:15;27.30;37.60
210;DHT22;90;48.810;9.120;2022-07-05T14:28:44;27.10;37.00
210;DHT22;90;48.810;9.120;2022-07-05T14:31:13;27.10;37.90
210;DHT22;90;48.810;9.120;2022-07-05T14:33:44;27.30;38.10
210;DHT22;90;48.810;9.120;2022-07-05T14:36:11;27.50;36.60
210;DHT22;90;48.810;9.120;2022-07-05T14:38:38;27.70;37.10
210;DHT22;90;48.810;9.120;2022-07-05T14:41:05;27.60;36.90
210;DHT22;90;48.810;9.120;2022-07-05T14:43:32;27.40;37.30
210;DHT22;90;48.810;9.120;2022-07-05T14:46:00;27.40;37.20
210;DHT22;90;48.810;9.120;2022-07-05T14:48:28;27.70;37.20
210;DHT22;90;48.810;9.120;2022-07-05T14:50:55;27.90;36.70
210;DHT22;90;48.810;9.120;2022-07-05T14:53:22;28.10;36.40
210;DHT22;90;48.810;9.120;2022-07-05T14:55:49;28.30;36.30
210;DHT22;90;48.810;9.120;2022-07-05T14:58:16;28.50;35.70
210;DHT22;90;48.810;9.120;2022-07-05T15:00:43;28.70;35.40
210;DHT22;90;48.810;9.120;2022-07-05T15:03:11;28.80;36.30
210;DHT22;90;48.810;9.120;2022-07-05T15:05:38;29.00;35.00
210;DHT22;90;48.810;9.120;2022-07-05T15:08:06;29.10;34.60
210;DHT22;90;48.810;9.120;2022-07-05T15:10:33;29.30;34.90
210;DHT22;90;48.810;9.120;2022-07-05T15:13:00;29.40;33.90
210;DHT22;90;48.810;9.120;2022-07-05T15:15:29;29.40;33.70
210;DHT22;90;48.810;9.120;2022-07-05T15:17:56;29.40;34.20
210;DHT22;90;48.810;9.120;2022-07-05T15:20:25;29.50;34.40
210;DHT22;90;48.810;9.120;2022-07-05T15:22:52;29.50;33.50
210;DHT22;90;48.810;9.120;2022-07-05T15:25:19;29.60;33.60
210;DHT22;90;48.810;9.120;2022-07-05T15:27:46;29.60;33.50
210;DHT22;90;48.810;9.120;2022-07-05T15:30:14;29.60;34.30
210;DHT22;90;48.810;9.120;2022-07-05T15:32:43;29.60;33.50
210;DHT22;90;48.810;9.120;2022-07-05T15:35:10;29.60;33.50
210;DHT22;90;48.810;9.120;2022-07-05T15:37:39;29.60;33.40
210;DHT22;90;48.810;9.120;2022-07-05T15:40:07;29.50;33.10
210;DHT22;90;48.810;9.120;2022-07-05T15:42:35;29.40;33.00
210;DHT22;90;48.810;9.120;2022-07-05T15:45:03;29.40;33.40
210;DHT22;90;48.810;9.120;2022-07-05T15:47:30;29.50;33.50
210;DHT22;90;48.810;9.120;2022-07-05T15:50:00;29.60;34.90
210;DHT22;90;48.810;9.120;2022-07-05T15:52:27;29.70;33.60
210;DHT22;90;48.810;9.120;2022-07-05T15:54:55;29.90;33.80
210;DHT22;90;48.810;9.120;2022-07-05T15:57:22;30.20;33.40
210;DHT22;90;48.810;9.120;2022-07-05T15:59:51;30.40;33.30
210;DHT22;90;48.810;9.120;2022-07-05T16:02:19;30.60;32.60
210;DHT22;90;48.810;9.120;2022-07-05T16:04:46;30.80;33.40
210;DHT22;90;48.810;9.120;2022-07-05T16:07:13;30.80;30.90
210;DHT22;90;48.810;9.120;2022-07-05T16:09:41;30.70;31.50
210;DHT22;90;48.810;9.120;2022-07-05T16:12:10;30.70;31.30
210;DHT22;90;48.810;9.120;2022-07-05T16:14:37;30.70;30.70
210;DHT22;90;48.810;9.120;2022-07-05T16:17:04;30.70;31.80
210;DHT22;90;48.810;9.120;2022-07-05T16:19:32;30.80;31.70
210;DHT22;90;48.810;9.120;2022-07-05T16:21:59;30.90;31.50
210;DHT22;90;48.810;9.120;2022-07-05T16:24:26;31.00;30.80
210;DHT22;90;48.810;9.120;2022-07-05T16:26:53;31.00;31.10
210;DHT22;90;48.810;9.120;2022-07-05T16:29:22;31.00;30.40
210;DHT22;90;48.810;9.120;2022-07-05T16:31:51;31.00;30.60
210;DHT22;90;48.810;9.120;2022-07-05T16:34:19;31.00;31.30
210;DHT22;90;48.810;9.120;2022-07-05T16:36:48;31.20;31.30
210;DHT22;90;48.810;9.120;2022-07-05T16:39:15;31.30;31.00
210;DHT22;90;48.810;9.120;2022-07-05T16:41:43;31.30;30.00
210;DHT22;90;48.810;9.120;2022-07-05T16:44:10;31.20;30.20
210;DHT22;90;48.810;9.120;2022-07-05T16:46:39;31.10;30.60
210;DHT22;90;48.810;9.120;2022-07-05T16:49:06;31.20;31.10
210;DHT22;90;48.810;9.120;2022-07-05T16:51:33;31.10;29.80
210;DHT22;90;48.810;9.120;2022-07-05T16:54:01;31.10;29.70
210;DHT22;90;48.810;9.120;2022-07-05T16:56:28;31.20;29.30
210;DHT22;90;48.810;9.120;2022-07-05T16:58:55;31.20;28.80
210;DHT22;90;48.810;9.120;2022-07-05T17:01:23;31.10;29.40